Resolute Bay Airport
CYRB : rendu visible

Aérodrome :











RETROUVEZ-NOUS SUR...

 
LOGIN :

S'inscrire | Disclaimer

   EN    FR    IT 

 









Légende :    VFR   VFR Marginal   IFR   IFR Intensif   IFR Très Intensif
Visi : 
Plafond : 
>= 8 km
>= 3000ft
5 à 8 km
1000 à 3000 ft
1500m à 5 km
500 à 1000 ft
800 à 1500m
200 à 500 ft
< 800m
< 200 ft
Symboles :   Orages  Brouillard  Fortes neiges  Fortes précipitations  Vent > 20 kt






- Altitude de l'aérodrome : 215 ft
- Code IATA : YRB


CYRB - Resolute Bay

DERNIER METAR :
  • 220500Z 09010KT 15SM -SN BKN007 OVC035 M19/M22 A3000 RMK SC7SC1 SLP170

METARs EXPIRÉS :
  • 220400Z 08011KT 15SM -SN BKN009 OVC035 M19/M22 A3000 RMK SC5SC3 SLP172
  • 220336Z 09010KT 15SM -SN BKN009 OVC035 M19/M21 A3001 RMK SC5SC3 SLP173
  • 220300Z 09010KT 15SM -SN FEW014 OVC036 M19/M22 A3001 RMK SC1SC7 SLP174

TAF TAF CYRB
Valide du 22 à 06h jusqu'au 23 à 06h UTC


220538Z 2206/2306 09010KT P6SM IC SCT008 BKN040
TEMPO 2206/2215 5SM -SN BR BKN007 OVC030
FM221500 05010KT P6SM SCT020
TEMPO 2215/2306 6SM -SN BKN020 RMK NXT FCST BY 221200Z



MET'MAP, la Météo Aéronautique d'un coup d'oeil ! - Copyright ORBIFLY Décembre 2007 - Disclaimer

ORBIFLY MET'MAP TEAM :

Programmation & Développement : Alexandra Zaïnal
Conception & Développement : Baudouin d'Aumeries
Co-Programmation & Développement : Marc-Olivier Méhu
Soutien technique & logistique : Manuel Goepfert

Contact : metmap@orbifly.com




SOURCES & CREDITS :

   NOAA       Earth
Advisory